Time;durP1;ratioP1;P1;durP2;ratioP2;P2;SDS_P1;SDS_P2;PMS_P1;PMS_P2;Temp;Humidity;BMP_temperature;BMP_pressure;BME280_temperature;BME280_humidity;BME280_pressure;Samples;Min_cycle;Max_cycle;Signal;HPM_P1;HPM_P2
2021/08/19 00:01:11;;;;;;;2.55;2.35;;;16.10;99.90;;;;;;5122875;28;20039;-85
2021/08/19 00:03:38;;;;;;;2.65;2.45;;;16.00;99.90;;;;;;5121063;28;20044;-85
2021/08/19 00:06:05;;;;;;;2.67;2.47;;;16.00;99.90;;;;;;5123544;28;20510;-84
2021/08/19 00:08:32;;;;;;;2.28;2.17;;;16.00;99.90;;;;;;5124009;28;20040;-85
2021/08/19 00:10:59;;;;;;;2.50;2.40;;;15.90;99.90;;;;;;5121634;28;20510;-83
2021/08/19 00:13:28;;;;;;;2.70;2.60;;;15.80;99.90;;;;;;5121353;28;20082;-85
2021/08/19 00:15:56;;;;;;;2.10;1.92;;;15.80;99.90;;;;;;5122793;28;20135;-85
2021/08/19 00:18:23;;;;;;;2.25;2.13;;;15.80;99.90;;;;;;5123347;28;20054;-85
2021/08/19 00:20:50;;;;;;;3.08;2.60;;;15.60;99.90;;;;;;5123202;28;20134;-85
2021/08/19 00:23:17;;;;;;;2.70;2.58;;;15.60;99.90;;;;;;5124838;28;20047;-86
2021/08/19 00:25:44;;;;;;;3.00;2.40;;;15.60;99.90;;;;;;5123608;28;20549;-84
2021/08/19 00:28:11;;;;;;;2.65;2.45;;;15.50;99.90;;;;;;5124602;28;20082;-85
2021/08/19 00:30:38;;;;;;;2.90;2.80;;;15.50;99.90;;;;;;5124207;28;20066;-85
2021/08/19 00:33:05;;;;;;;2.45;2.33;;;15.40;99.90;;;;;;5126927;28;20039;-85
2021/08/19 00:35:32;;;;;;;2.72;2.40;;;15.40;99.90;;;;;;5128345;28;20078;-84
2021/08/19 00:38:00;;;;;;;3.10;2.42;;;15.50;99.90;;;;;;5126039;28;20098;-85
2021/08/19 00:40:28;;;;;;;3.03;2.42;;;15.40;99.90;;;;;;5128902;28;20415;-84
2021/08/19 00:42:57;;;;;;;4.65;2.65;;;15.40;99.90;;;;;;5122860;28;20557;-84
2021/08/19 00:45:25;;;;;;;2.85;2.75;;;15.40;99.90;;;;;;5117642;28;20043;-84
2021/08/19 00:47:52;;;;;;;2.88;2.67;;;15.50;99.90;;;;;;5116250;28;20448;-84
2021/08/19 00:50:19;;;;;;;3.03;2.60;;;15.50;99.90;;;;;;5116130;28;20131;-84
2021/08/19 00:52:46;;;;;;;2.55;2.35;;;15.50;99.90;;;;;;5115907;28;20057;-84
2021/08/19 00:55:14;;;;;;;2.53;2.33;;;15.50;99.90;;;;;;5115950;28;20051;-84
2021/08/19 00:57:42;;;;;;;3.45;1.92;;;15.50;99.90;;;;;;5115914;28;20075;-83
2021/08/19 01:00:10;;;;;;;2.38;2.17;;;15.50;99.90;;;;;;5115907;28;20058;-83
2021/08/19 01:02:51;;;;;;;2.08;1.98;;;15.50;99.90;;;;;;5116367;28;20044;-84
2021/08/19 01:05:41;;;;;;;2.30;2.20;;;15.50;99.90;;;;;;5117439;28;20501;-83
2021/08/19 01:08:09;;;;;;;2.10;2.00;;;15.50;99.90;;;;;;5115576;28;20079;-84
2021/08/19 01:10:36;;;;;;;1.63;1.52;;;15.50;99.90;;;;;;5115843;28;20083;-84
2021/08/19 01:13:04;;;;;;;2.10;2.00;;;15.60;99.90;;;;;;5116838;28;20047;-85
2021/08/19 01:15:31;;;;;;;2.63;2.20;;;15.60;99.90;;;;;;5116220;28;20134;-84
2021/08/19 01:17:59;;;;;;;1.52;1.52;;;15.70;99.90;;;;;;5117013;28;20470;-83
2021/08/19 01:20:33;;;;;;;1.90;1.80;;;15.70;99.90;;;;;;5118974;28;20048;-85
2021/08/19 01:23:00;;;;;;;1.90;1.80;;;15.80;99.90;;;;;;5117182;28;20498;-84
2021/08/19 01:25:28;;;;;;;1.88;1.77;;;15.70;99.90;;;;;;5117954;28;20044;-85
2021/08/19 01:27:56;;;;;;;1.90;1.80;;;15.70;99.90;;;;;;5118309;28;20074;-85
2021/08/19 01:30:25;;;;;;;2.00;1.90;;;15.70;99.90;;;;;;5118532;28;20047;-85
2021/08/19 01:32:52;;;;;;;1.83;1.75;;;15.80;99.90;;;;;;5121666;28;20506;-85
2021/08/19 01:35:28;;;;;;;1.88;1.77;;;15.80;99.90;;;;;;5119642;28;20047;-85
2021/08/19 01:37:54;;;;;;;1.70;1.60;;;15.80;99.90;;;;;;5120521;28;20123;-86
2021/08/19 01:40:21;;;;;;;2.65;1.70;;;15.80;99.90;;;;;;5122257;28;20087;-84
2021/08/19 01:42:48;;;;;;;2.03;1.83;;;15.90;99.90;;;;;;5122408;28;20067;-83
2021/08/19 01:45:16;;;;;;;2.15;1.70;;;15.90;99.90;;;;;;5123640;28;20043;-85
2021/08/19 01:47:43;;;;;;;1.80;1.70;;;15.90;99.90;;;;;;5123819;28;20063;-85
2021/08/19 01:50:10;;;;;;;2.03;1.70;;;15.80;99.90;;;;;;5125641;28;20146;-85
2021/08/19 01:52:37;;;;;;;1.90;1.80;;;15.90;99.90;;;;;;5124973;28;20062;-85
2021/08/19 01:55:04;;;;;;;1.92;1.83;;;15.90;99.90;;;;;;5125671;28;20051;-85
2021/08/19 01:57:31;;;;;;;2.00;1.90;;;15.90;99.90;;;;;;5125023;28;20071;-85
2021/08/19 01:59:58;;;;;;;1.92;1.83;;;15.80;99.90;;;;;;5118055;28;20078;-83
2021/08/19 02:02:25;;;;;;;2.15;2.05;;;15.80;99.90;;;;;;5115402;28;20108;-85
2021/08/19 02:04:52;;;;;;;2.25;1.67;;;15.90;99.90;;;;;;5115861;28;20043;-85
2021/08/19 02:07:18;;;;;;;1.83;1.73;;;15.80;99.90;;;;;;5115927;28;20142;-83
2021/08/19 02:09:45;;;;;;;1.60;1.58;;;15.80;99.90;;;;;;5118075;28;20139;-84
2021/08/19 02:12:12;;;;;;;1.88;1.77;;;15.80;99.90;;;;;;5117862;28;20086;-85
2021/08/19 02:14:38;;;;;;;1.73;1.63;;;15.80;99.90;;;;;;5115943;28;20138;-83
2021/08/19 02:17:05;;;;;;;1.90;1.80;;;15.80;99.90;;;;;;5116361;28;20047;-84
2021/08/19 02:19:32;;;;;;;2.03;1.92;;;15.80;99.90;;;;;;5116247;28;20139;-85
2021/08/19 02:21:59;;;;;;;3.40;1.73;;;15.70;99.90;;;;;;5116211;28;20118;-84
2021/08/19 02:24:25;;;;;;;3.38;2.05;;;15.80;99.90;;;;;;5117403;28;20082;-85
2021/08/19 02:26:52;;;;;;;2.08;1.90;;;15.80;99.90;;;;;;5117973;28;20130;-85
2021/08/19 02:29:19;;;;;;;1.70;1.60;;;15.80;99.90;;;;;;5116623;28;20075;-85
2021/08/19 02:31:45;;;;;;;2.28;1.70;;;15.80;99.90;;;;;;5118574;28;20085;-85
2021/08/19 02:34:12;;;;;;;2.10;2.00;;;15.80;99.90;;;;;;5118879;28;20138;-85
2021/08/19 02:36:39;;;;;;;2.00;1.90;;;15.70;99.90;;;;;;5117594;28;20558;-84
2021/08/19 02:39:05;;;;;;;1.95;1.70;;;15.70;99.90;;;;;;5120182;28;20085;-83
2021/08/19 02:41:32;;;;;;;2.80;1.75;;;15.70;99.90;;;;;;5119329;28;20497;-86
2021/08/19 02:43:59;;;;;;;2.15;1.88;;;15.70;99.90;;;;;;5119066;28;20071;-85
2021/08/19 02:46:28;;;;;;;2.08;1.60;;;15.70;99.90;;;;;;5119965;28;20073;-85
2021/08/19 02:48:55;;;;;;;1.80;1.70;;;15.70;99.90;;;;;;5120162;28;20044;-84
2021/08/19 02:51:22;;;;;;;2.08;1.98;;;15.70;99.90;;;;;;5121051;28;20051;-84
2021/08/19 02:53:48;;;;;;;1.92;1.83;;;15.70;99.90;;;;;;5122961;28;20577;-85
2021/08/19 02:56:15;;;;;;;2.05;1.95;;;15.80;99.90;;;;;;5123885;28;20059;-85
2021/08/19 02:58:42;;;;;;;2.92;1.80;;;15.90;99.90;;;;;;5122585;28;20071;-86
2021/08/19 03:01:08;;;;;;;2.80;1.63;;;15.90;99.90;;;;;;5122652;28;20126;-85
2021/08/19 03:03:35;;;;;;;4.05;1.75;;;16.00;99.90;;;;;;5122884;28;20051;-86
2021/08/19 03:06:02;;;;;;;1.90;1.80;;;16.00;99.90;;;;;;5127597;28;20039;-85
2021/08/19 03:08:29;;;;;;;1.75;1.65;;;16.10;99.90;;;;;;5124519;28;20047;-84
2021/08/19 03:10:56;;;;;;;1.95;1.85;;;16.20;99.90;;;;;;5123617;28;20107;-85
2021/08/19 03:13:22;;;;;;;2.10;2.00;;;16.20;99.90;;;;;;5122901;28;20071;-86
2021/08/19 03:15:49;;;;;;;2.08;1.98;;;16.00;99.90;;;;;;5123721;28;20107;-85
2021/08/19 03:18:16;;;;;;;2.38;2.20;;;16.00;99.90;;;;;;5117684;28;20047;-84
2021/08/19 03:20:43;;;;;;;3.20;3.00;;;16.00;99.90;;;;;;5114812;28;20139;-86
2021/08/19 03:23:10;;;;;;;4.20;3.80;;;16.10;99.90;;;;;;5117774;28;20039;-86
2021/08/19 03:25:37;;;;;;;4.50;4.20;;;16.10;99.90;;;;;;5117775;28;20075;-85
2021/08/19 03:28:05;;;;;;;2.80;2.70;;;16.10;99.90;;;;;;5122231;28;20054;-85
2021/08/19 03:30:31;;;;;;;2.40;2.30;;;16.10;99.90;;;;;;5122216;28;20052;-85
2021/08/19 03:32:59;;;;;;;2.50;2.30;;;16.00;99.90;;;;;;5117811;28;20138;-85
2021/08/19 03:35:27;;;;;;;2.22;2.13;;;16.00;99.90;;;;;;5119954;28;20062;-84
2021/08/19 03:37:53;;;;;;;1.77;1.67;;;16.00;99.90;;;;;;5118952;28;20126;-85
2021/08/19 03:40:20;;;;;;;2.30;2.10;;;16.00;99.90;;;;;;5117437;28;20087;-84
2021/08/19 03:42:47;;;;;;;2.00;1.90;;;16.00;99.90;;;;;;5115100;28;20582;-84
2021/08/19 03:45:18;;;;;;;2.35;1.98;;;15.90;99.90;;;;;;5112536;28;20067;-84
2021/08/19 03:47:46;;;;;;;2.67;1.58;;;15.90;99.90;;;;;;5112564;28;20127;-84
2021/08/19 03:50:13;;;;;;;1.90;1.80;;;15.80;99.90;;;;;;5112699;28;20043;-83
2021/08/19 03:52:40;;;;;;;2.75;1.80;;;15.80;99.90;;;;;;5112833;28;20090;-84
2021/08/19 03:55:07;;;;;;;2.05;1.95;;;15.80;99.90;;;;;;5112982;28;20052;-83
2021/08/19 03:57:33;;;;;;;2.00;1.90;;;15.80;99.90;;;;;;5113514;28;20106;-84
2021/08/19 04:00:00;;;;;;;2.00;1.77;;;15.80;99.90;;;;;;5113625;28;20421;-84
2021/08/19 04:02:27;;;;;;;22.00;2.75;;;15.90;99.90;;;;;;5113149;28;20414;-84
2021/08/19 04:04:54;;;;;;;6.25;1.83;;;15.90;99.90;;;;;;5113800;28;20097;-83
2021/08/19 04:07:21;;;;;;;2.05;1.95;;;15.90;99.90;;;;;;5113138;28;20071;-83
2021/08/19 04:09:48;;;;;;;1.90;1.80;;;15.90;99.90;;;;;;5115187;28;20083;-84
2021/08/19 04:12:14;;;;;;;4.00;1.67;;;15.90;99.90;;;;;;5114017;28;20074;-84
2021/08/19 04:14:41;;;;;;;2.83;1.67;;;15.90;99.90;;;;;;5115671;28;20048;-84
2021/08/19 04:17:08;;;;;;;8.93;2.35;;;16.00;99.90;;;;;;5114151;28;20553;-84
2021/08/19 04:19:35;;;;;;;4.47;2.00;;;16.00;99.90;;;;;;5115317;28;20075;-83
2021/08/19 04:22:02;;;;;;;1.80;1.70;;;16.00;99.90;;;;;;5115032;28;20079;-83
2021/08/19 04:28:16;;;;;;;2.13;1.40;;;16.20;99.90;;;;;;5181671;23;20054;-90
2021/08/19 04:30:43;;;;;;;1.40;1.27;;;16.20;99.90;;;;;;5079219;28;20126;-90
2021/08/19 04:33:10;;;;;;;3.97;2.03;;;16.40;99.90;;;;;;5078979;28;20052;-90
2021/08/19 04:35:37;;;;;;;2.17;1.42;;;16.40;99.90;;;;;;5096851;28;20130;-90
2021/08/19 04:38:03;;;;;;;1.10;1.10;;;16.50;99.90;;;;;;5082760;28;20048;-91
2021/08/19 04:40:30;;;;;;;3.00;1.35;;;16.60;99.90;;;;;;5090035;28;20528;-89
2021/08/19 04:42:57;;;;;;;1.58;1.25;;;16.60;99.90;;;;;;5097106;28;20090;-90
2021/08/19 04:45:24;;;;;;;1.90;1.42;;;16.70;99.90;;;;;;5078744;28;20047;-91
2021/08/19 04:47:50;;;;;;;3.63;1.60;;;16.70;99.90;;;;;;5079012;28;20070;-90
2021/08/19 04:50:17;;;;;;;1.48;1.38;;;16.70;99.90;;;;;;5078471;28;20080;-90
2021/08/19 04:52:44;;;;;;;1.48;1.38;;;16.70;99.90;;;;;;5078594;28;20048;-90
2021/08/19 04:55:11;;;;;;;1.60;1.50;;;16.70;99.90;;;;;;5078715;28;20050;-89
2021/08/19 04:57:38;;;;;;;3.25;1.42;;;16.80;99.90;;;;;;5096586;28;20134;-89
2021/08/19 05:00:06;;;;;;;2.30;1.48;;;16.80;99.90;;;;;;5078400;28;20484;-89
2021/08/19 05:02:32;;;;;;;1.30;1.30;;;16.90;99.90;;;;;;5078110;28;20079;-90
2021/08/19 05:04:59;;;;;;;1.30;1.17;;;16.90;99.90;;;;;;5078294;28;20048;-90
2021/08/19 05:07:26;;;;;;;3.05;1.80;;;16.90;99.90;;;;;;5078633;28;20078;-89
2021/08/19 05:09:53;;;;;;;3.53;2.08;;;17.00;99.90;;;;;;5078529;28;20055;-89
2021/08/19 05:12:20;;;;;;;5.40;1.60;;;17.00;99.90;;;;;;5078063;28;20063;-90
2021/08/19 05:14:46;;;;;;;5.85;2.05;;;17.00;99.90;;;;;;5078025;28;20052;-90
2021/08/19 05:17:13;;;;;;;2.28;1.48;;;17.10;99.90;;;;;;5078190;28;20062;-89
2021/08/19 05:19:40;;;;;;;4.30;1.40;;;17.00;99.90;;;;;;5078072;28;20393;-89
2021/08/19 05:22:07;;;;;;;7.20;1.70;;;17.00;99.90;;;;;;5077993;28;20054;-90
2021/08/19 05:24:34;;;;;;;2.35;1.65;;;17.10;99.90;;;;;;5078079;28;20514;-89
2021/08/19 05:27:00;;;;;;;1.73;1.63;;;17.10;99.90;;;;;;5077955;28;20059;-89
2021/08/19 05:29:27;;;;;;;2.05;1.63;;;17.10;99.90;;;;;;5078351;28;20135;-88
2021/08/19 05:31:54;;;;;;;1.42;1.33;;;17.10;99.90;;;;;;5078251;28;20127;-90
2021/08/19 05:34:20;;;;;;;1.33;1.27;;;17.20;99.90;;;;;;5077847;28;20408;-89
2021/08/19 05:36:47;;;;;;;7.70;1.30;;;17.20;99.90;;;;;;5081527;28;20079;-91
2021/08/19 05:39:14;;;;;;;9.43;2.10;;;17.20;99.90;;;;;;5080394;28;20083;-90
2021/08/19 05:41:41;;;;;;;1.60;1.17;;;17.10;99.90;;;;;;5077961;28;20044;-90
2021/08/19 05:44:07;;;;;;;2.97;1.60;;;17.00;99.90;;;;;;5077450;28;20048;-89
2021/08/19 05:46:34;;;;;;;3.78;1.60;;;16.90;99.90;;;;;;5077489;28;20052;-89
2021/08/19 05:49:01;;;;;;;1.60;1.50;;;16.90;99.90;;;;;;5077759;28;20079;-89
2021/08/19 05:51:27;;;;;;;1.73;1.63;;;16.80;99.90;;;;;;5077658;28;20139;-90
2021/08/19 05:53:54;;;;;;;3.00;1.75;;;16.80;99.90;;;;;;5077479;28;20135;-90
2021/08/19 05:56:21;;;;;;;19.55;3.33;;;16.70;99.90;;;;;;5078854;28;20055;-90
2021/08/19 05:58:47;;;;;;;17.10;2.40;;;16.60;99.90;;;;;;5087522;28;20078;-87
2021/08/19 06:01:14;;;;;;;3.08;1.63;;;16.60;99.90;;;;;;5078828;28;20131;-90
2021/08/19 06:03:42;;;;;;;1.77;1.67;;;16.50;99.90;;;;;;5077535;28;20052;-91
2021/08/19 06:06:10;;;;;;;3.33;1.58;;;16.50;99.90;;;;;;5077279;28;20064;-89
2021/08/19 06:08:37;;;;;;;1.60;1.50;;;16.50;99.90;;;;;;5077226;28;20468;-89
2021/08/19 06:11:04;;;;;;;1.40;1.40;;;16.50;99.90;;;;;;5077330;28;20134;-90
2021/08/19 06:13:31;;;;;;;1.85;1.52;;;16.70;99.90;;;;;;5077357;28;20052;-90
2021/08/19 06:15:57;;;;;;;1.75;1.60;;;16.90;99.90;;;;;;5077215;28;20135;-90
2021/08/19 06:18:24;;;;;;;1.60;1.40;;;17.10;99.90;;;;;;5077364;28;20077;-89
2021/08/19 06:20:51;;;;;;;1.42;1.40;;;17.30;99.90;;;;;;5095128;28;20057;-90
2021/08/19 06:23:18;;;;;;;1.30;1.20;;;17.40;99.90;;;;;;5076897;28;20131;-91
2021/08/19 06:25:45;;;;;;;1.08;1.05;;;17.40;99.90;;;;;;5077247;28;20040;-91
2021/08/19 06:28:11;;;;;;;1.30;1.20;;;17.60;99.90;;;;;;5076837;28;20056;-90
2021/08/19 06:30:38;;;;;;;2.05;1.30;;;17.70;99.90;;;;;;5077021;28;20131;-90
2021/08/19 06:33:06;;;;;;;2.33;1.27;;;17.80;99.90;;;;;;5077080;28;20062;-91
2021/08/19 06:35:33;;;;;;;1.20;1.20;;;17.80;99.90;;;;;;5076954;28;20131;-88
2021/08/19 06:37:59;;;;;;;1.08;1.08;;;17.90;99.90;;;;;;5076928;28;20412;-88
2021/08/19 06:40:26;;;;;;;1.10;1.10;;;18.00;99.90;;;;;;5076803;28;20553;-89
2021/08/19 06:42:53;;;;;;;1.10;0.98;;;18.00;99.90;;;;;;5094555;28;20048;-89
2021/08/19 06:45:20;;;;;;;1.10;1.00;;;18.00;99.90;;;;;;5076938;28;20077;-90
2021/08/19 06:47:47;;;;;;;0.88;0.88;;;18.00;99.90;;;;;;5076625;28;20050;-91
2021/08/19 06:50:14;;;;;;;0.90;0.90;;;18.10;99.90;;;;;;5076532;28;20144;-94
2021/08/19 06:52:44;;;;;;;1.00;1.00;;;18.20;99.90;;;;;;5094487;28;20058;-89
2021/08/19 06:55:12;;;;;;;9.60;7.80;;;18.20;99.90;;;;;;5077566;28;20044;-89
2021/08/19 06:57:38;;;;;;;4.13;3.45;;;18.50;99.90;;;;;;5076885;28;20435;-90
2021/08/19 07:00:07;;;;;;;1.13;1.13;;;18.80;99.90;;;;;;5076840;28;20506;-89
2021/08/19 07:02:34;;;;;;;1.40;0.90;;;18.80;99.90;;;;;;5076483;28;20063;-89
2021/08/19 07:05:01;;;;;;;1.55;1.45;;;19.10;99.90;;;;;;5076794;28;20488;-90
2021/08/19 07:07:31;;;;;;;2.47;2.00;;;19.10;99.90;;;;;;5077207;28;20040;-88
2021/08/19 07:10:00;;;;;;;2.88;1.25;;;19.20;99.90;;;;;;5076506;28;20158;-91
2021/08/19 07:12:27;;;;;;;1.35;0.85;;;19.20;99.90;;;;;;5076573;28;20561;-89
2021/08/19 07:14:54;;;;;;;5.53;3.72;;;19.30;99.90;;;;;;5077028;28;20138;-91
2021/08/19 07:17:21;;;;;;;3.42;3.22;;;19.40;99.90;;;;;;5089915;28;20075;-90
2021/08/19 07:19:48;;;;;;;3.90;3.70;;;19.50;99.90;;;;;;5083782;28;20072;-90
2021/08/19 07:22:14;;;;;;;2.05;1.92;;;19.50;99.90;;;;;;5076791;28;20054;-89
2021/08/19 07:24:41;;;;;;;1.92;0.65;;;19.50;99.90;;;;;;5075968;28;20052;-90
2021/08/19 07:27:08;;;;;;;0.68;0.68;;;19.30;99.90;;;;;;5072848;28;20153;-90
2021/08/19 07:29:34;;;;;;;0.75;0.75;;;19.30;99.90;;;;;;5072870;28;20049;-91
2021/08/19 07:32:02;;;;;;;0.65;0.55;;;19.40;99.90;;;;;;5073864;28;20051;-89
2021/08/19 07:34:28;;;;;;;0.80;0.80;;;19.40;99.90;;;;;;5072953;28;20045;-89
2021/08/19 07:36:55;;;;;;;4.75;1.15;;;19.50;99.90;;;;;;5072588;28;20083;-90
2021/08/19 07:39:22;;;;;;;0.80;0.80;;;19.50;99.90;;;;;;5072631;28;20123;-90
2021/08/19 07:41:49;;;;;;;0.85;0.80;;;19.50;99.90;;;;;;5073856;28;20052;-88
2021/08/19 07:44:16;;;;;;;1.27;0.90;;;19.60;99.90;;;;;;5073477;28;20045;-90
2021/08/19 07:46:42;;;;;;;1.30;0.90;;;19.50;99.90;;;;;;5072702;28;20131;-90
2021/08/19 07:49:09;;;;;;;1.98;1.00;;;19.40;99.90;;;;;;5072715;28;20413;-88
2021/08/19 07:51:36;;;;;;;0.90;0.90;;;19.40;99.90;;;;;;5072645;28;20065;-88
2021/08/19 07:54:03;;;;;;;2.22;0.90;;;19.40;99.90;;;;;;5072825;28;20485;-92
2021/08/19 07:56:29;;;;;;;1.00;1.00;;;19.50;99.90;;;;;;5072593;28;20136;-92
2021/08/19 07:58:58;;;;;;;1.27;1.10;;;19.40;99.90;;;;;;5072784;28;20469;-88
2021/08/19 08:01:25;;;;;;;1.23;1.20;;;19.50;99.90;;;;;;5073272;28;20131;-89
2021/08/19 08:03:52;;;;;;;2.97;1.00;;;19.50;99.90;;;;;;5079159;28;20048;-90
2021/08/19 08:06:19;;;;;;;1.23;1.13;;;19.40;99.90;;;;;;5076999;28;20123;-89
2021/08/19 08:08:46;;;;;;;0.98;0.98;;;19.60;99.90;;;;;;5076582;28;20412;-89
2021/08/19 08:11:13;;;;;;;1.00;1.00;;;19.70;99.90;;;;;;5076578;28;20412;-94
2021/08/19 08:13:39;;;;;;;3.70;1.20;;;19.90;99.90;;;;;;5076323;28;20094;-90
2021/08/19 08:16:06;;;;;;;1.65;0.93;;;20.20;99.90;;;;;;5076331;28;20139;-89
2021/08/19 08:18:33;;;;;;;1.15;1.00;;;20.60;99.90;;;;;;5076090;28;20048;-88
2021/08/19 08:21:02;;;;;;;0.77;0.77;;;20.60;99.90;;;;;;5076262;28;20508;-89
2021/08/19 08:23:33;;;;;;;2.15;1.20;;;20.50;99.90;;;;;;5076555;28;20148;-90
2021/08/19 08:26:00;;;;;;;1.27;1.13;;;20.40;99.90;;;;;;5076372;28;20102;-95
2021/08/19 08:28:30;;;;;;;1.08;1.08;;;20.20;99.90;;;;;;5075595;28;20421;-89
2021/08/19 08:30:58;;;;;;;3.13;1.00;;;20.10;99.90;;;;;;5075699;28;20181;-89
2021/08/19 08:33:26;;;;;;;1.15;1.05;;;20.30;99.90;;;;;;5076220;28;20048;-91
2021/08/19 08:35:56;;;;;;;1.33;1.23;;;20.30;99.90;;;;;;5080559;28;20045;-90
2021/08/19 08:38:23;;;;;;;1.20;1.20;;;20.20;99.90;;;;;;5088434;28;20131;-89
2021/08/19 08:40:52;;;;;;;1.20;1.10;;;20.20;99.90;;;;;;5076494;28;20040;-88
2021/08/19 08:43:21;;;;;;;1.35;1.20;;;20.20;99.90;;;;;;5075502;28;20044;-89
2021/08/19 08:45:49;;;;;;;1.17;1.17;;;20.30;99.90;;;;;;5075890;28;20135;-89
2021/08/19 08:48:24;;;;;;;1.50;1.30;;;20.20;99.90;;;;;;5075543;28;20049;-90
2021/08/19 08:50:53;;;;;;;3.85;1.55;;;20.10;99.90;;;;;;5075677;28;20105;-89
2021/08/19 08:53:20;;;;;;;1.63;0.98;;;20.00;99.90;;;;;;5075576;28;20048;-89
2021/08/19 08:55:48;;;;;;;3.63;1.60;;;20.10;99.90;;;;;;5075482;28;20041;-88
2021/08/19 08:58:15;;;;;;;4.00;1.08;;;20.10;99.90;;;;;;5075993;28;20082;-91
2021/08/19 09:00:44;;;;;;;1.13;1.02;;;19.90;99.90;;;;;;5075772;28;20040;-93
2021/08/19 09:03:13;;;;;;;4.78;1.70;;;19.80;99.90;;;;;;5075479;28;20404;-90
2021/08/19 09:05:44;;;;;;;1.20;1.20;;;19.80;99.90;;;;;;5075660;28;20417;-93
2021/08/19 09:08:16;;;;;;;1.58;1.20;;;19.80;99.90;;;;;;5075450;28;20540;-89
2021/08/19 09:10:45;;;;;;;1.33;1.20;;;19.80;99.90;;;;;;5075579;28;20056;-87
2021/08/19 09:13:17;;;;;;;1.95;1.55;;;19.90;99.90;;;;;;5075105;28;20053;-92
2021/08/19 09:15:46;;;;;;;1.90;1.30;;;19.80;99.90;;;;;;5075768;28;20543;-91
2021/08/19 09:18:27;;;;;;;1.52;1.25;;;19.70;99.90;;;;;;5075551;28;20143;-93
2021/08/19 09:20:54;;;;;;;3.83;1.20;;;19.80;99.90;;;;;;5075279;28;20124;-89
2021/08/19 09:23:21;;;;;;;1.35;1.35;;;19.80;99.90;;;;;;5075683;28;20135;-89
2021/08/19 09:25:48;;;;;;;1.58;1.27;;;20.10;99.90;;;;;;5075765;28;20048;-88
2021/08/19 09:28:22;;;;;;;1.38;1.10;;;20.00;99.90;;;;;;5074450;28;20044;-93
2021/08/19 09:30:50;;;;;;;1.77;0.98;;;20.10;99.90;;;;;;5075081;28;20052;-88
2021/08/19 09:33:25;;;;;;;1.27;1.27;;;20.30;99.90;;;;;;5075301;28;20055;-90
2021/08/19 09:35:57;;;;;;;3.13;1.40;;;20.40;99.90;;;;;;5074838;28;20048;-90
2021/08/19 09:38:26;;;;;;;2.17;1.10;;;20.50;99.90;;;;;;5073624;28;20053;-88
2021/08/19 09:41:02;;;;;;;1.00;0.90;;;20.80;99.90;;;;;;5074070;28;20058;-88
2021/08/19 09:43:52;;;;;;;1.23;1.13;;;21.10;99.90;;;;;;5073902;28;20497;-88
2021/08/19 09:46:30;;;;;;;1.20;1.10;;;21.20;99.90;;;;;;5073583;28;20124;-87
2021/08/19 09:49:00;;;;;;;1.60;1.50;;;21.20;99.90;;;;;;5073526;28;20489;-90
2021/08/19 09:51:28;;;;;;;1.23;1.20;;;21.20;99.90;;;;;;5073891;28;20048;-90
2021/08/19 09:53:58;;;;;;;2.00;1.42;;;21.20;99.90;;;;;;5074887;28;20057;-88
2021/08/19 09:56:33;;;;;;;2.88;1.48;;;21.30;99.90;;;;;;5085751;28;20036;-89
2021/08/19 09:59:21;;;;;;;1.98;1.10;;;21.40;99.90;;;;;;5077928;28;20044;-92
2021/08/19 10:01:49;;;;;;;1.25;1.00;;;21.80;99.90;;;;;;5073455;28;20047;-90
2021/08/19 10:04:16;;;;;;;0.80;0.80;;;22.30;99.90;;;;;;5071714;28;20044;-87
2021/08/19 10:06:44;;;;;;;1.92;0.98;;;22.70;99.90;;;;;;5072826;28;20569;-88
2021/08/19 10:09:12;;;;;;;1.48;0.98;;;22.90;99.90;;;;;;5072834;28;20107;-86
2021/08/19 10:11:46;;;;;;;2.05;1.20;;;23.00;99.90;;;;;;5073530;28;20528;-89
2021/08/19 10:14:19;;;;;;;2.50;0.95;;;22.60;99.90;;;;;;5067190;28;20076;-87
2021/08/19 10:16:47;;;;;;;0.97;0.90;;;22.80;99.90;;;;;;5073111;28;20131;-89
2021/08/19 10:19:38;;;;;;;1.63;1.50;;;22.90;99.90;;;;;;5073443;28;20062;-86
2021/08/19 10:22:11;;;;;;;1.17;1.08;;;22.70;99.90;;;;;;5073379;28;20053;-87
2021/08/19 10:24:41;;;;;;;1.10;1.00;;;22.80;99.90;;;;;;5072368;28;20044;-89
2021/08/19 10:27:20;;;;;;;1.58;1.23;;;22.70;99.90;;;;;;5072917;28;20441;-87
2021/08/19 10:29:53;;;;;;;1.15;1.05;;;22.80;99.90;;;;;;5073574;28;20058;-87
2021/08/19 10:32:28;;;;;;;2.60;1.17;;;23.10;99.90;;;;;;5076239;28;20045;-88
2021/08/19 10:35:03;;;;;;;6.15;1.30;;;22.90;99.90;;;;;;5073231;28;20045;-87
2021/08/19 10:37:48;;;;;;;1.55;1.13;;;23.20;99.90;;;;;;5074253;28;20050;-88
2021/08/19 10:40:32;;;;;;;1.60;1.00;;;23.10;99.90;;;;;;5073732;28;20408;-87
2021/08/19 10:43:32;;;;;;;1.30;0.95;;;23.20;99.90;;;;;;5072960;28;20045;-87
2021/08/19 10:46:10;;;;;;;1.08;1.00;;;23.00;99.90;;;;;;5072419;28;20568;-88
2021/08/19 10:48:48;;;;;;;1.05;1.00;;;23.20;99.90;;;;;;5072465;28;20049;-88
2021/08/19 10:51:15;;;;;;;3.88;1.45;;;23.30;99.90;;;;;;5071094;28;20068;-87
2021/08/19 10:53:42;;;;;;;6.55;2.03;;;23.60;99.90;;;;;;5073301;28;20076;-88
2021/08/19 10:56:10;;;;;;;2.53;1.17;;;23.70;99.90;;;;;;5072799;28;20041;-88
2021/08/19 10:58:43;;;;;;;0.80;0.80;;;23.30;99.90;;;;;;5072537;28;20412;-88
2021/08/19 11:01:13;;;;;;;7.10;1.80;;;22.70;99.90;;;;;;5072482;28;20085;-88
2021/08/19 11:03:42;;;;;;;1.10;1.00;;;22.50;99.90;;;;;;5073600;28;20050;-91
2021/08/19 11:06:17;;;;;;;1.05;1.05;;;22.60;99.90;;;;;;5072486;28;20052;-86
2021/08/19 11:08:46;;;;;;;2.88;1.20;;;22.60;99.90;;;;;;5072804;28;20040;-88
2021/08/19 11:11:34;;;;;;;1.95;1.23;;;22.60;99.90;;;;;;5072528;28;20099;-87
2021/08/19 11:14:09;;;;;;;1.63;1.00;;;22.50;99.90;;;;;;5072929;28;20048;-91
2021/08/19 11:16:41;;;;;;;1.08;0.90;;;22.30;99.90;;;;;;5083589;28;20052;-89
2021/08/19 11:19:20;;;;;;;1.33;1.00;;;22.20;99.90;;;;;;5079455;28;20453;-85
2021/08/19 11:21:59;;;;;;;2.08;1.20;;;22.20;99.90;;;;;;5073645;28;20456;-87
2021/08/19 11:24:31;;;;;;;1.10;1.10;;;22.50;99.90;;;;;;5071093;28;20048;-87
2021/08/19 11:27:00;;;;;;;3.00;1.25;;;23.00;99.90;;;;;;5079793;28;20117;-88
2021/08/19 11:29:36;;;;;;;1.38;1.27;;;23.30;99.90;;;;;;5076323;28;20059;-94
2021/08/19 11:32:13;;;;;;;2.13;1.10;;;23.40;99.90;;;;;;5075887;28;20269;-88
2021/08/19 11:34:50;;;;;;;1.45;1.30;;;23.20;99.90;;;;;;5075396;28;20268;-92
2021/08/19 11:37:25;;;;;;;1.10;1.10;;;22.90;99.90;;;;;;5079719;28;20101;-88
2021/08/19 11:39:54;;;;;;;1.27;1.10;;;22.80;99.90;;;;;;5079987;28;20143;-89
2021/08/19 11:42:34;;;;;;;1.50;1.40;;;22.70;99.90;;;;;;5079856;28;20134;-86
2021/08/19 11:45:16;;;;;;;1.20;1.15;;;22.70;99.90;;;;;;5079668;28;20511;-88
2021/08/19 11:47:45;;;;;;;1.17;1.05;;;22.60;99.90;;;;;;5079104;28;20563;-87
2021/08/19 11:50:12;;;;;;;1.50;1.40;;;22.80;99.90;;;;;;5079624;28;20054;-87
2021/08/19 11:52:39;;;;;;;2.85;1.27;;;22.90;99.90;;;;;;5079254;28;20533;-86
2021/08/19 11:55:06;;;;;;;1.00;1.00;;;22.90;99.90;;;;;;5079334;28;20558;-88
2021/08/19 11:57:33;;;;;;;2.10;1.50;;;23.20;99.90;;;;;;5079344;28;20056;-87
2021/08/19 12:00:03;;;;;;;4.68;1.67;;;23.70;99.90;;;;;;5097152;28;20114;-87
2021/08/19 12:02:30;;;;;;;1.55;1.15;;;23.90;99.90;;;;;;5079256;28;20050;-88
2021/08/19 12:05:11;;;;;;;1.55;1.30;;;24.40;99.90;;;;;;5079185;28;20051;-86
2021/08/19 12:07:42;;;;;;;1.27;1.17;;;24.60;99.90;;;;;;5079394;28;20090;-87
2021/08/19 12:10:10;;;;;;;1.38;1.27;;;24.60;99.90;;;;;;5078552;28;20131;-88
2021/08/19 12:12:39;;;;;;;0.77;0.77;;;24.40;99.90;;;;;;5078944;28;20056;-89
2021/08/19 12:15:08;;;;;;;1.75;1.20;;;24.00;99.90;;;;;;5079037;28;20060;-89
2021/08/19 12:17:35;;;;;;;3.20;1.20;;;23.30;99.90;;;;;;5080784;28;20162;-87
2021/08/19 12:20:09;;;;;;;2.22;1.60;;;23.00;99.90;;;;;;5083415;28;20047;-89
2021/08/19 12:22:36;;;;;;;1.80;1.33;;;22.80;99.90;;;;;;5083874;28;20054;-89
2021/08/19 12:25:14;;;;;;;3.00;1.40;;;22.80;99.90;;;;;;5086772;28;20048;-89
2021/08/19 12:27:41;;;;;;;1.52;1.30;;;22.40;99.90;;;;;;5084089;28;20561;-88
2021/08/19 12:30:08;;;;;;;1.55;1.20;;;22.50;99.90;;;;;;5086957;28;20431;-89
2021/08/19 12:32:36;;;;;;;3.40;1.13;;;22.80;99.90;;;;;;5086378;28;20366;-90
2021/08/19 12:35:08;;;;;;;3.47;1.50;;;22.90;99.90;;;;;;5094898;28;20047;-90
2021/08/19 12:37:39;;;;;;;1.85;1.33;;;23.20;99.90;;;;;;5096263;28;20135;-89
2021/08/19 12:40:11;;;;;;;1.55;1.35;;;23.40;99.90;;;;;;5087990;28;20044;-87
2021/08/19 12:42:39;;;;;;;1.92;1.55;;;23.50;99.90;;;;;;5083445;28;20066;-86
2021/08/19 12:45:11;;;;;;;2.33;1.50;;;23.60;99.90;;;;;;5086138;28;20054;-88
2021/08/19 12:47:41;;;;;;;7.95;2.13;;;23.50;99.90;;;;;;5083033;28;20135;-89
2021/08/19 12:50:09;;;;;;;1.23;1.13;;;23.80;99.90;;;;;;5085730;28;20139;-90
2021/08/19 12:52:36;;;;;;;1.75;1.65;;;23.90;99.90;;;;;;5085876;28;20240;-90
2021/08/19 12:55:17;;;;;;;1.40;1.30;;;23.70;99.90;;;;;;5086423;28;20134;-89
2021/08/19 12:57:44;;;;;;;3.15;1.40;;;24.10;99.90;;;;;;5089579;28;20423;-90